Time;durP1;ratioP1;P1;durP2;ratioP2;P2;SDS_P1;SDS_P2;PMS_P1;PMS_P2;Temp;Humidity;BMP_temperature;BMP_pressure;BME280_temperature;BME280_humidity;BME280_pressure;Samples;Min_cycle;Max_cycle;Signal;HPM_P1;HPM_P2
2022/05/30 00:00:51;;;;;;;16.35;14.13;;;;;;;12.21;76.75;100862.72;1800131;79;21036;-89
2022/05/30 00:03:19;;;;;;;17.30;14.87;;;;;;;12.20;76.70;100857.87;1782282;78;21124;-88
2022/05/30 00:05:49;;;;;;;19.37;15.18;;;;;;;12.20;76.69;100855.64;1800681;79;21086;-89
2022/05/30 00:08:16;;;;;;;17.98;14.53;;;;;;;12.19;76.66;100857.41;1803525;79;22799;-89
2022/05/30 00:10:43;;;;;;;16.87;15.15;;;;;;;12.19;76.69;100853.45;1796348;78;21605;-89
2022/05/30 00:13:12;;;;;;;21.37;15.63;;;;;;;12.20;76.73;100852.59;1757414;78;21097;-88
2022/05/30 00:15:39;;;;;;;16.17;13.95;;;;;;;12.21;76.85;100847.77;1802757;78;21062;-89
2022/05/30 00:18:12;;;;;;;16.50;14.73;;;;;;;12.24;76.74;100856.19;1799188;79;21018;-88
2022/05/30 00:20:43;;;;;;;19.80;14.40;;;;;;;12.23;76.72;100856.59;1791717;78;21799;-88
2022/05/30 00:23:09;;;;;;;19.30;14.95;;;;;;;12.22;76.67;100856.16;1797441;79;21079;-88
2022/05/30 00:25:42;;;;;;;18.30;14.83;;;;;;;12.20;76.69;100855.23;1802828;78;21014;-89
2022/05/30 00:28:09;;;;;;;21.83;15.67;;;;;;;12.19;76.74;100856.52;1810603;78;21630;-89
2022/05/30 00:30:36;;;;;;;16.45;13.78;;;;;;;12.18;76.76;100854.32;1780012;79;21119;-87
2022/05/30 00:33:03;;;;;;;16.97;14.15;;;;;;;12.18;76.76;100856.96;1788641;78;21712;-87
2022/05/30 00:35:36;;;;;;;15.75;13.53;;;;;;;12.16;76.83;100857.36;1814442;78;20986;-88
2022/05/30 00:38:05;;;;;;;16.55;14.05;;;;;;;12.16;76.78;100856.45;1798217;78;21032;-87
2022/05/30 00:40:32;;;;;;;15.70;12.93;;;;;;;12.14;76.83;100858.17;1782056;78;21062;-88
2022/05/30 00:43:27;;;;;;;17.48;12.82;;;;;;;12.15;77.04;100856.00;1804077;78;21035;-89
2022/05/30 00:45:56;;;;;;;17.32;14.65;;;;;;;12.16;76.94;100856.05;1806778;78;22591;-88
2022/05/30 00:48:31;;;;;;;17.65;15.35;;;;;;;12.16;76.86;100856.05;1797897;78;21910;-89
2022/05/30 00:51:13;;;;;;;17.98;14.73;;;;;;;12.13;76.86;100853.77;1778193;78;21759;-88
2022/05/30 00:53:40;;;;;;;17.95;15.90;;;;;;;12.10;76.88;100848.42;1777221;78;21121;-88
2022/05/30 00:56:09;;;;;;;18.42;15.65;;;;;;;12.06;76.93;100843.50;1783219;79;21078;-88
2022/05/30 00:58:39;;;;;;;20.55;16.32;;;;;;;12.00;76.90;100846.03;1808857;79;21771;-88
2022/05/30 01:01:06;;;;;;;17.80;14.60;;;;;;;11.95;77.03;100848.55;1797420;79;21012;-88
2022/05/30 01:06:30;;;;;;;17.73;15.65;;;;;;;11.98;77.30;100855.22;1750094;79;21098;-88
2022/05/30 01:09:01;;;;;;;20.27;14.80;;;;;;;12.01;77.37;100850.42;1739544;82;21110;-88
2022/05/30 01:12:00;;;;;;;16.30;14.38;;;;;;;12.04;77.43;100845.22;1787009;79;21756;-88
2022/05/30 01:14:31;;;;;;;18.25;14.65;;;;;;;12.09;77.48;100847.53;1810132;79;21019;-87
2022/05/30 01:16:58;;;;;;;15.70;14.10;;;;;;;12.13;77.46;100849.38;1809256;79;21066;-90
2022/05/30 01:19:57;;;;;;;15.90;14.28;;;;;;;12.15;77.37;100848.09;1791669;79;21596;-90
2022/05/30 01:22:52;;;;;;;16.42;14.75;;;;;;;12.13;77.25;100852.01;1778631;79;21090;-90
2022/05/30 01:26:03;;;;;;;17.15;15.08;;;;;;;12.11;77.25;100844.94;1805421;79;21695;-89
2022/05/30 01:28:55;;;;;;;21.87;15.48;;;;;;;12.07;77.28;100842.66;1780206;79;21553;-88
2022/05/30 01:31:22;;;;;;;18.87;16.23;;;;;;;12.07;77.54;100840.02;1802381;79;21152;-88
2022/05/30 01:33:49;;;;;;;19.00;14.95;;;;;;;12.09;77.49;100839.63;1810629;79;21026;-88
2022/05/30 01:36:15;;;;;;;17.98;14.55;;;;;;;12.09;77.57;100846.63;1794465;79;21058;-88
2022/05/30 01:38:45;;;;;;;17.65;14.58;;;;;;;12.09;77.41;100843.98;1793645;79;21817;-89
2022/05/30 01:41:20;;;;;;;18.42;14.70;;;;;;;12.08;77.52;100843.10;1777890;79;21070;-88
2022/05/30 01:43:47;;;;;;;17.42;14.78;;;;;;;12.11;77.51;100840.98;1793777;79;21050;-89
2022/05/30 01:46:18;;;;;;;17.27;15.43;;;;;;;12.10;77.50;100845.78;1775050;79;21139;-89
2022/05/30 01:48:45;;;;;;;17.87;15.83;;;;;;;12.05;77.54;100837.78;1768271;79;21032;-87
2022/05/30 01:51:14;;;;;;;22.90;17.15;;;;;;;12.08;77.53;100842.22;1809622;79;21740;-88
2022/05/30 01:53:53;;;;;;;17.52;15.72;;;;;;;12.06;77.52;100838.23;1810340;79;21046;-88
2022/05/30 01:56:21;;;;;;;20.43;15.88;;;;;;;12.05;77.57;100832.07;1807311;79;21102;-88
2022/05/30 01:58:48;;;;;;;25.27;17.05;;;;;;;12.09;77.66;100833.42;1809863;79;21222;-88
2022/05/30 02:01:22;;;;;;;19.37;17.30;;;;;;;12.06;77.63;100832.95;1807645;79;21070;-89
2022/05/30 02:03:49;;;;;;;21.90;17.25;;;;;;;12.05;77.58;100835.14;1808834;79;21801;-87
2022/05/30 02:06:17;;;;;;;20.62;17.52;;;;;;;12.04;77.61;100839.95;1811671;79;22293;-88
2022/05/30 02:08:45;;;;;;;21.45;17.17;;;;;;;12.03;77.65;100832.88;1741596;82;21070;-92
2022/05/30 02:11:11;;;;;;;23.90;17.70;;;;;;;12.05;77.70;100830.75;1741351;81;21190;-88
2022/05/30 02:13:39;;;;;;;23.05;17.15;;;;;;;12.03;77.60;100835.11;1756552;80;21070;-90
2022/05/30 02:17:08;;;;;;;19.55;17.42;;;;;;;12.03;77.67;100831.55;1756978;80;21169;-91
2022/05/30 02:18:45;;;;;;;24.20;17.82;;;;;;;12.05;77.71;100828.55;1741219;80;21039;-90
2022/05/30 02:21:12;;;;;;;22.05;17.35;;;;;;;12.03;77.65;100832.47;1791418;79;21050;-90
2022/05/30 02:23:39;;;;;;;22.45;17.70;;;;;;;12.04;77.76;100832.03;1782017;79;21888;-93
2022/05/30 02:26:05;;;;;;;22.98;19.25;;;;;;;12.04;77.70;100828.08;1790973;79;20999;-92
2022/05/30 02:28:32;;;;;;;22.55;19.42;;;;;;;12.03;77.74;100830.23;1797696;79;21706;-89
2022/05/30 02:31:04;;;;;;;25.62;20.55;;;;;;;11.99;77.67;100818.77;1780112;80;21070;-92
2022/05/30 02:39:02;;;;;;;28.70;20.40;;;;;;;11.90;77.79;100822.53;1805454;79;21003;-89
2022/05/30 02:41:29;;;;;;;24.18;20.57;;;;;;;11.86;77.85;100824.17;1793108;79;21734;-89
2022/05/30 02:44:04;;;;;;;25.00;20.60;;;;;;;11.84;78.04;100823.26;1800040;79;21606;-89
2022/05/30 02:46:31;;;;;;;25.25;21.17;;;;;;;11.86;78.20;100822.86;1794398;79;21657;-88
2022/05/30 02:48:58;;;;;;;24.00;21.50;;;;;;;11.92;78.24;100821.22;1812339;79;21094;-90
2022/05/30 02:51:24;;;;;;;28.67;22.25;;;;;;;11.94;78.21;100823.05;1781904;80;21267;-90
2022/05/30 02:53:51;;;;;;;29.67;22.60;;;;;;;11.95;78.26;100818.21;1781818;80;21797;-88
2022/05/30 03:00:15;;;;;;;24.60;21.82;;;;;;;11.99;78.39;100817.84;1757173;79;21587;-89
2022/05/30 03:02:42;;;;;;;26.27;22.22;;;;;;;12.07;78.55;100822.88;1752162;80;21551;-87
2022/05/30 03:05:09;;;;;;;23.77;21.10;;;;;;;12.10;78.51;100820.27;1785851;79;21595;-88
2022/05/30 03:07:36;;;;;;;29.02;20.88;;;;;;;12.11;78.47;100820.75;1781796;79;21830;-90
2022/05/30 03:10:04;;;;;;;24.07;20.05;;;;;;;12.13;78.49;100822.98;1776350;79;21042;-89
2022/05/30 03:12:31;;;;;;;23.40;19.85;;;;;;;12.15;78.57;100817.30;1781782;79;21049;-87
2022/05/30 03:14:58;;;;;;;24.20;21.37;;;;;;;12.16;78.50;100815.14;1784142;79;21047;-87
2022/05/30 03:17:24;;;;;;;23.83;21.23;;;;;;;12.12;78.42;100820.31;1774482;79;21057;-89
2022/05/30 03:19:52;;;;;;;26.48;22.82;;;;;;;12.11;78.53;100815.47;1781238;79;21746;-88
2022/05/30 03:22:22;;;;;;;26.12;23.40;;;;;;;12.09;78.50;100814.95;1793977;79;21450;-88
2022/05/30 03:24:48;;;;;;;31.50;25.62;;;;;;;12.09;78.57;100814.55;1765488;79;21045;-89
2022/05/30 03:27:15;;;;;;;29.92;26.52;;;;;;;12.08;78.59;100810.13;1756494;79;21121;-89
2022/05/30 03:29:42;;;;;;;28.42;24.77;;;;;;;12.05;78.55;100800.84;1788185;79;21050;-89
2022/05/30 03:32:09;;;;;;;28.02;24.70;;;;;;;12.00;78.64;100804.70;1779397;79;21812;-89
2022/05/30 03:34:36;;;;;;;33.67;26.65;;;;;;;11.99;78.83;100806.89;1789171;79;21016;-88
2022/05/30 03:37:03;;;;;;;30.30;25.95;;;;;;;12.02;78.78;100807.38;1779362;79;21036;-88
2022/05/30 03:39:29;;;;;;;32.15;24.57;;;;;;;11.96;78.68;100805.50;1755750;79;21124;-87
2022/05/30 03:41:56;;;;;;;31.23;24.35;;;;;;;11.95;78.68;100811.62;1783896;79;21035;-89
2022/05/30 03:44:23;;;;;;;26.45;23.65;;;;;;;11.90;78.79;100805.38;1770009;79;22571;-89
2022/05/30 03:46:50;;;;;;;35.43;27.00;;;;;;;11.89;78.75;100806.63;1776613;79;22194;-89
2022/05/30 03:49:17;;;;;;;37.20;31.27;;;;;;;11.83;78.83;100795.09;1768596;79;21060;-89
2022/05/30 03:51:43;;;;;;;35.03;30.65;;;;;;;11.79;79.08;100790.62;1781168;79;21432;-88
2022/05/30 03:54:10;;;;;;;41.23;36.93;;;;;;;11.78;79.07;100798.48;1768535;79;22103;-87
2022/05/30 03:56:37;;;;;;;52.33;40.25;;;;;;;11.73;79.06;100794.45;1781572;79;21719;-88
2022/05/30 03:59:04;;;;;;;43.68;38.80;;;;;;;11.71;79.24;100793.94;1766152;79;21066;-85
2022/05/30 04:01:31;;;;;;;43.55;36.35;;;;;;;11.73;79.39;100801.45;1765406;80;21088;-85
2022/05/30 04:03:57;;;;;;;41.83;37.30;;;;;;;11.75;79.55;100805.92;1803093;79;21286;-84
2022/05/30 04:06:24;;;;;;;44.95;38.63;;;;;;;11.83;79.73;100797.73;1798371;79;21030;-86
2022/05/30 04:08:51;;;;;;;42.00;37.40;;;;;;;11.93;79.75;100803.23;1804385;78;21152;-87
2022/05/30 04:11:18;;;;;;;40.40;36.15;;;;;;;11.98;79.55;100807.73;1807841;79;21571;-85
2022/05/30 04:13:45;;;;;;;43.38;38.67;;;;;;;12.04;79.62;100826.75;1803211;78;21553;-86
2022/05/30 04:16:12;;;;;;;32.53;26.77;;;;;;;12.08;79.62;100826.39;1802904;77;21326;-85
2022/05/30 04:18:38;;;;;;;21.85;19.37;;;;;;;12.14;79.69;100831.78;1784172;78;21082;-88
2022/05/30 04:21:09;;;;;;;23.47;18.92;;;;;;;12.13;79.50;100832.22;1804898;77;21753;-86
2022/05/30 04:23:37;;;;;;;19.48;17.32;;;;;;;12.14;79.52;100831.34;1802828;79;22004;-87
2022/05/30 04:26:05;;;;;;;20.10;17.90;;;;;;;12.16;79.49;100829.66;1802544;77;21047;-89
2022/05/30 04:28:32;;;;;;;21.23;18.70;;;;;;;12.21;79.47;100832.37;1763769;80;22070;-90
2022/05/30 04:30:58;;;;;;;21.68;19.37;;;;;;;12.23;79.41;100829.33;1802007;79;21010;-91
2022/05/30 04:33:42;;;;;;;19.67;17.67;;;;;;;12.29;79.41;100833.39;1791325;79;21732;-87
2022/05/30 04:36:13;;;;;;;20.57;18.32;;;;;;;12.33;79.34;100826.02;1803566;79;21513;-87
2022/05/30 04:38:40;;;;;;;20.12;18.10;;;;;;;12.36;79.33;100822.09;1798448;79;21011;-86
2022/05/30 04:41:06;;;;;;;19.60;17.57;;;;;;;12.39;79.33;100827.45;1794590;79;21251;-87
2022/05/30 04:43:33;;;;;;;21.48;19.17;;;;;;;12.43;79.29;100823.12;1794965;79;21133;-88
2022/05/30 04:46:15;;;;;;;22.02;17.60;;;;;;;12.50;79.31;100821.05;1791640;79;22539;-88
2022/05/30 04:48:42;;;;;;;18.62;16.70;;;;;;;12.53;79.05;100817.13;1806248;79;21026;-90
2022/05/30 04:51:09;;;;;;;19.25;17.23;;;;;;;12.52;78.89;100815.37;1799470;79;21603;-92
2022/05/30 04:53:35;;;;;;;19.35;17.27;;;;;;;12.53;78.78;100807.89;1794791;79;21042;-91
2022/05/30 04:56:03;;;;;;;21.82;18.23;;;;;;;12.55;78.73;100804.84;1798733;79;21093;-92
2022/05/30 04:58:33;;;;;;;18.73;15.38;;;;;;;12.55;78.65;100806.16;1803547;79;21764;-92
2022/05/30 05:01:01;;;;;;;16.02;14.43;;;;;;;12.54;78.56;100804.40;1791260;79;21568;-89
2022/05/30 05:03:37;;;;;;;17.00;15.20;;;;;;;12.53;78.52;100796.45;1797423;78;21038;-89
2022/05/30 05:06:17;;;;;;;16.95;14.98;;;;;;;12.56;78.63;100800.47;1797239;79;21083;-87
2022/05/30 05:09:12;;;;;;;15.90;14.00;;;;;;;12.60;78.70;100801.86;1797380;77;21650;-87
2022/05/30 05:11:38;;;;;;;;;;;;;;;12.67;78.74;100799.31;1804492;77;21754;-87
2022/05/30 05:14:05;;;;;;;17.98;14.93;;;;;;;12.68;78.57;100800.67;1818213;77;20180;-90
2022/05/30 05:16:33;;;;;;;20.97;17.65;;;;;;;12.70;78.57;100804.66;1810378;79;21309;-91
2022/05/30 05:19:00;;;;;;;17.27;14.95;;;;;;;12.72;78.45;100809.53;1790296;77;21011;-87
2022/05/30 05:21:31;;;;;;;18.55;16.15;;;;;;;12.68;78.27;100807.71;1761294;80;21701;-87
2022/05/30 05:23:59;;;;;;;18.07;16.00;;;;;;;12.64;78.31;100808.09;1758575;81;21747;-86
2022/05/30 05:26:25;;;;;;;17.82;14.90;;;;;;;12.62;78.43;100808.05;1812898;77;21062;-87
2022/05/30 05:28:52;;;;;;;16.82;14.93;;;;;;;12.61;78.30;100803.66;1810741;79;21066;-86
2022/05/30 05:31:33;;;;;;;14.38;12.98;;;;;;;12.57;78.33;100799.59;1781420;79;21635;-86
2022/05/30 05:34:00;;;;;;;18.30;16.35;;;;;;;12.51;78.27;100802.13;1808708;77;21097;-86
2022/05/30 05:36:30;;;;;;;15.55;13.62;;;;;;;12.45;78.24;100797.63;1748329;80;22586;-89
2022/05/30 05:38:57;;;;;;;16.27;12.88;;;;;;;12.45;78.43;100809.52;1762889;80;21025;-89
2022/05/30 05:41:24;;;;;;;14.13;12.53;;;;;;;12.43;78.35;100798.04;1768388;81;21234;-90
2022/05/30 05:43:53;;;;;;;14.90;11.48;;;;;;;12.50;78.66;100806.53;1802735;79;21026;-87
2022/05/30 05:46:21;;;;;;;15.60;12.40;;;;;;;12.53;78.41;100810.97;1801310;79;21093;-86
2022/05/30 05:48:49;;;;;;;13.98;12.33;;;;;;;12.58;78.53;100814.59;1798844;77;21632;-87
2022/05/30 05:51:17;;;;;;;14.98;12.98;;;;;;;12.72;78.87;100810.41;1819434;77;21030;-87
2022/05/30 05:53:44;;;;;;;15.50;12.37;;;;;;;12.86;78.85;100801.42;1810567;79;21038;-89
2022/05/30 05:56:18;;;;;;;13.35;12.05;;;;;;;12.99;78.71;100803.84;1790051;79;21727;-89
2022/05/30 05:58:45;;;;;;;14.03;12.50;;;;;;;13.10;78.53;100808.86;1783937;77;21027;-89
2022/05/30 06:01:15;;;;;;;14.75;12.55;;;;;;;13.15;78.20;100807.15;1813186;77;21800;-90
2022/05/30 06:03:42;;;;;;;15.10;12.88;;;;;;;13.21;78.12;100813.88;1715421;81;21086;-89
2022/05/30 06:06:08;;;;;;;12.10;10.35;;;;;;;13.31;78.23;100812.28;1753539;80;21048;-89
2022/05/30 06:08:35;;;;;;;12.85;11.10;;;;;;;13.43;78.07;100816.86;1770815;80;21083;-89
2022/05/30 06:11:05;;;;;;;14.35;11.03;;;;;;;13.55;78.05;100820.09;1764967;80;21035;-89
2022/05/30 06:13:40;;;;;;;12.37;11.08;;;;;;;13.71;77.75;100816.80;1777549;80;22591;-89
2022/05/30 06:16:18;;;;;;;12.75;11.00;;;;;;;13.83;77.39;100817.83;1761639;80;21115;-88
2022/05/30 06:18:45;;;;;;;11.80;10.50;;;;;;;13.99;77.23;100820.68;1756491;80;21045;-89
2022/05/30 06:21:12;;;;;;;15.80;10.75;;;;;;;14.08;76.88;100820.36;1779698;80;21067;-89
2022/05/30 06:23:40;;;;;;;11.45;10.25;;;;;;;14.19;76.47;100815.63;1787461;79;21028;-88
2022/05/30 06:26:08;;;;;;;14.10;10.93;;;;;;;14.33;76.57;100820.19;1775727;79;21763;-89
2022/05/30 06:28:36;;;;;;;10.40;9.28;;;;;;;14.51;76.37;100819.50;1759183;80;21032;-89
2022/05/30 06:31:08;;;;;;;16.27;10.88;;;;;;;14.65;76.03;100822.30;1765493;80;21144;-89
2022/05/30 06:33:35;;;;;;;10.68;9.45;;;;;;;14.76;75.69;100818.88;1784869;79;21393;-89
2022/05/30 06:36:05;;;;;;;11.48;10.30;;;;;;;14.81;75.33;100821.99;1783289;79;21552;-89
2022/05/30 06:38:31;;;;;;;11.80;10.63;;;;;;;14.86;75.41;100806.58;1782750;80;22580;-89
2022/05/30 06:40:58;;;;;;;12.37;10.75;;;;;;;15.05;75.40;100820.86;1776667;80;21090;-88
2022/05/30 06:43:25;;;;;;;16.30;13.35;;;;;;;15.19;74.98;100822.77;1762169;80;21035;-89
2022/05/30 06:45:51;;;;;;;16.25;9.83;;;;;;;15.18;74.46;100821.85;1769106;80;21063;-89
2022/05/30 06:48:18;;;;;;;10.95;9.78;;;;;;;15.19;74.24;100818.78;1764102;80;21560;-89
2022/05/30 06:50:51;;;;;;;11.38;9.88;;;;;;;15.30;74.39;100816.65;1775485;80;21784;-89
2022/05/30 06:53:18;;;;;;;10.63;9.53;;;;;;;15.43;74.08;100811.41;1768613;80;21063;-89
2022/05/30 06:55:49;;;;;;;11.25;8.75;;;;;;;15.52;73.86;100806.16;1789265;79;21035;-89
2022/05/30 06:58:14;;;;;;;11.48;9.38;;;;;;;15.64;73.48;100804.91;1763871;79;21242;-89
2022/05/30 07:00:41;;;;;;;11.25;9.60;;;;;;;15.74;73.17;100797.45;1774824;79;21067;-89
2022/05/30 07:03:08;;;;;;;14.87;9.23;;;;;;;15.78;72.68;100796.16;1793027;78;21753;-89
2022/05/30 07:05:34;;;;;;;12.75;8.43;;;;;;;15.87;72.87;100793.09;1790271;79;21046;-89
2022/05/30 07:08:04;;;;;;;12.10;8.18;;;;;;;15.96;72.27;100795.36;1817566;77;21647;-89
2022/05/30 07:10:31;;;;;;;11.88;8.93;;;;;;;15.93;71.54;100797.13;1820512;77;21051;-90
2022/05/30 07:12:58;;;;;;;11.68;8.73;;;;;;;15.90;71.55;100794.44;1806463;78;20997;-89
2022/05/30 07:15:26;;;;;;;12.20;7.47;;;;;;;15.96;71.24;100795.36;1785307;78;22505;-89
2022/05/30 07:17:53;;;;;;;10.28;7.50;;;;;;;16.11;71.72;100792.75;1801110;79;21050;-90
2022/05/30 07:20:20;;;;;;;8.15;6.30;;;;;;;16.38;71.31;100797.22;1799831;79;21028;-89
2022/05/30 07:22:47;;;;;;;7.83;6.50;;;;;;;16.48;70.72;100794.16;1799334;79;21008;-89
2022/05/30 07:25:13;;;;;;;9.35;7.12;;;;;;;16.65;70.58;100783.55;1780502;79;21062;-89
2022/05/30 07:27:40;;;;;;;11.88;6.70;;;;;;;16.86;70.39;100787.55;1790131;79;22549;-89
2022/05/30 07:30:08;;;;;;;6.72;6.03;;;;;;;17.11;70.24;100788.86;1785882;79;21054;-89
2022/05/30 07:32:37;;;;;;;12.88;6.33;;;;;;;17.33;69.87;100788.39;1772785;80;21058;-90
2022/05/30 07:35:04;;;;;;;8.40;6.78;;;;;;;17.46;69.33;100782.14;1789582;79;21062;-90
2022/05/30 07:37:31;;;;;;;11.33;7.20;;;;;;;17.66;69.20;100786.51;1804278;79;21093;-90
2022/05/30 07:39:58;;;;;;;8.90;7.28;;;;;;;17.85;68.96;100782.06;1788022;79;21742;-89
2022/05/30 07:42:24;;;;;;;9.05;6.90;;;;;;;18.01;68.57;100778.41;1815489;79;21030;-89
2022/05/30 07:44:53;;;;;;;13.78;8.93;;;;;;;18.15;68.02;100780.10;1810068;78;21045;-88
2022/05/30 07:47:20;;;;;;;10.70;7.62;;;;;;;18.06;67.23;100777.94;1788079;78;21130;-88
2022/05/30 07:49:47;;;;;;;15.08;8.10;;;;;;;18.06;66.84;100779.27;1781925;79;21051;-88
2022/05/30 07:52:16;;;;;;;10.38;7.00;;;;;;;18.06;66.89;100773.95;1796455;79;21914;-88
2022/05/30 07:54:43;;;;;;;9.35;7.45;;;;;;;18.28;67.01;100775.14;1801305;79;21118;-89
2022/05/30 07:57:10;;;;;;;9.50;6.78;;;;;;;18.45;66.16;100779.05;1795261;79;21061;-88
2022/05/30 07:59:37;;;;;;;9.48;7.33;;;;;;;18.44;66.03;100786.14;1808667;78;21101;-88
2022/05/30 08:02:04;;;;;;;8.40;6.95;;;;;;;18.67;66.27;100789.09;1772084;80;21063;-88
2022/05/30 08:04:32;;;;;;;10.53;6.90;;;;;;;18.88;65.74;100792.52;1784333;80;22567;-88
2022/05/30 08:06:59;;;;;;;9.95;7.25;;;;;;;18.83;64.91;100792.11;1767520;80;21040;-88
2022/05/30 08:09:25;;;;;;;10.65;7.10;;;;;;;18.79;64.86;100790.80;1778449;80;21683;-88
2022/05/30 08:11:52;;;;;;;10.68;8.40;;;;;;;18.92;64.83;100793.82;1789838;79;21541;-88
2022/05/30 08:14:19;;;;;;;11.93;7.10;;;;;;;18.84;64.38;100793.89;1777640;80;21187;-88
2022/05/30 08:16:46;;;;;;;9.88;7.80;;;;;;;18.96;64.44;100792.02;1782512;80;21584;-88
2022/05/30 08:19:13;;;;;;;9.70;8.70;;;;;;;19.02;63.90;100796.83;1762506;80;21233;-88
2022/05/30 08:21:44;;;;;;;11.97;8.18;;;;;;;18.91;63.56;100798.70;1762033;80;21033;-88
2022/05/30 08:24:10;;;;;;;10.30;7.80;;;;;;;18.76;63.40;100795.68;1770030;81;21140;-89
2022/05/30 08:26:37;;;;;;;10.28;7.55;;;;;;;18.64;63.34;100793.13;1761296;80;21061;-89
2022/05/30 08:29:04;;;;;;;11.18;7.10;;;;;;;18.35;63.08;100795.98;1771961;80;21747;-88
2022/05/30 08:31:31;;;;;;;13.70;9.40;;;;;;;18.11;63.33;100802.33;1771742;80;21040;-88
2022/05/30 08:33:58;;;;;;;11.00;8.35;;;;;;;17.98;63.23;100796.17;1771824;80;21083;-87
2022/05/30 08:36:24;;;;;;;11.15;7.90;;;;;;;17.87;63.15;100794.91;1789880;79;21051;-88
2022/05/30 08:41:46;;;;;;;16.55;10.23;;;;;;;17.84;63.39;100797.55;1764123;80;21047;-88
2022/05/30 08:44:05;;;;;;;11.75;8.18;;;;;;;18.00;63.02;100791.30;1782226;80;21099;-88
2022/05/30 08:46:56;;;;;;;9.88;8.73;;;;;;;18.08;63.04;100787.72;1726866;81;21528;-88
2022/05/30 08:49:35;;;;;;;11.12;8.70;;;;;;;18.08;62.89;100784.59;1775054;80;21007;-88
2022/05/30 08:52:25;;;;;;;11.88;10.63;;;;;;;18.00;62.42;100797.05;1755984;80;21473;-88
2022/05/30 08:55:14;;;;;;;12.95;10.60;;;;;;;17.78;62.38;100798.45;1750427;80;21193;-88
2022/05/30 08:57:52;;;;;;;9.23;8.35;;;;;;;17.68;62.77;100796.70;1757439;80;21498;-88
2022/05/30 09:00:33;;;;;;;12.50;9.75;;;;;;;17.45;62.54;100796.33;1758494;80;21106;-88
2022/05/30 09:03:25;;;;;;;10.68;8.60;;;;;;;17.38;62.67;100795.02;1784009;78;21032;-88
2022/05/30 09:06:16;;;;;;;10.48;9.08;;;;;;;17.34;62.60;100794.59;1774440;79;21066;-88
2022/05/30 09:08:51;;;;;;;9.95;7.90;;;;;;;17.31;63.12;100784.85;1750066;79;21747;-89
2022/05/30 09:11:40;;;;;;;7.58;6.87;;;;;;;17.59;63.04;100780.80;1773208;80;21008;-88
2022/05/30 09:14:50;;;;;;;9.53;7.80;;;;;;;17.74;63.14;100773.20;1778202;79;21083;-87
2022/05/30 09:17:46;;;;;;;10.58;6.55;;;;;;;17.98;62.51;100773.53;1764081;80;21530;-87
2022/05/30 09:20:17;;;;;;;7.50;5.50;;;;;;;17.97;61.82;100772.66;1755603;79;21071;-89
2022/05/30 09:23:16;;;;;;;6.78;4.97;;;;;;;17.93;61.59;100774.91;1776814;79;21763;-91
2022/05/30 09:26:00;;;;;;;8.03;5.65;;;;;;;18.04;61.68;100773.53;1778267;79;21682;-89
2022/05/30 09:28:30;;;;;;;6.90;5.45;;;;;;;18.17;61.70;100772.98;1790960;79;21631;-88
2022/05/30 09:31:27;;;;;;;7.92;5.25;;;;;;;18.35;61.74;100777.33;1772485;79;21548;-88
2022/05/30 09:34:25;;;;;;;8.08;5.25;;;;;;;18.52;61.27;100774.55;1770864;79;21084;-88
2022/05/30 09:36:52;;;;;;;5.05;4.47;;;;;;;18.61;60.92;100773.14;1686221;83;21819;-88
2022/05/30 09:39:18;;;;;;;4.35;3.83;;;;;;;18.58;60.02;100771.83;1686214;84;21061;-87
2022/05/30 09:41:50;;;;;;;6.05;4.45;;;;;;;18.30;59.36;100773.80;1685131;84;22049;-88
2022/05/30 09:44:24;;;;;;;6.42;4.70;;;;;;;18.19;59.59;100776.09;1687149;83;21136;-88
2022/05/30 09:46:56;;;;;;;8.68;5.87;;;;;;;18.16;59.71;100770.78;1687300;83;21079;-88
2022/05/30 09:49:42;;;;;;;6.00;5.17;;;;;;;18.06;59.47;100768.63;1687383;83;21762;-87
2022/05/30 09:52:36;;;;;;;7.72;4.97;;;;;;;17.90;59.22;100766.92;1684273;84;21653;-89
2022/05/30 09:55:35;;;;;;;5.72;4.55;;;;;;;17.75;59.32;100769.63;1683153;83;21136;-87
2022/05/30 09:58:03;;;;;;;7.53;3.70;;;;;;;17.63;59.28;100769.23;1687189;84;21154;-88
2022/05/30 10:00:58;;;;;;;6.47;4.85;;;;;;;17.71;59.27;100769.20;1686059;84;21100;-88
2022/05/30 10:03:36;;;;;;;5.50;4.28;;;;;;;17.64;59.24;100761.25;1625748;85;21810;-86
2022/05/30 10:06:19;;;;;;;8.08;6.42;;;;;;;17.62;59.57;100754.14;1621078;88;21110;-87
2022/05/30 10:09:09;;;;;;;8.33;5.03;;;;;;;17.65;59.28;100755.02;1649659;86;21141;-87
2022/05/30 10:11:36;;;;;;;6.72;4.50;;;;;;;17.78;59.43;100751.86;1637813;86;21200;-87
2022/05/30 10:14:26;;;;;;;6.22;3.65;;;;;;;17.82;59.16;100751.41;1647119;83;21915;-87
2022/05/30 10:16:56;;;;;;;5.90;3.77;;;;;;;17.86;58.95;100750.53;1679793;83;22449;-88
2022/05/30 10:19:29;;;;;;;6.22;4.08;;;;;;;17.80;59.00;100745.20;1726658;82;21089;-87
2022/05/30 10:28:52;;;;;;;7.12;3.70;;;;;;;18.22;58.11;100749.88;1726319;82;21175;-87
2022/05/30 10:31:54;;;;;;;5.25;4.17;;;;;;;18.24;57.82;100743.66;1706154;83;21771;-87
2022/05/30 10:34:35;;;;;;;6.17;3.35;;;;;;;18.18;57.39;100750.34;1717666;82;21058;-87
2022/05/30 10:37:22;;;;;;;7.70;4.05;;;;;;;18.09;57.27;100747.73;1715328;82;21070;-87
2022/05/30 10:40:27;;;;;;;4.92;3.02;;;;;;;17.98;56.90;100743.82;1733514;82;21139;-88
2022/05/30 10:43:01;;;;;;;5.75;3.77;;;;;;;17.87;57.05;100741.20;1796056;79;27126;-87
2022/05/30 10:45:45;;;;;;;7.40;4.17;;;;;;;18.00;57.15;100739.78;1806415;78;22797;-88
2022/05/30 10:48:19;;;;;;;6.00;3.47;;;;;;;18.16;57.10;100732.15;1804334;77;21547;-87
2022/05/30 10:51:01;;;;;;;5.90;3.75;;;;;;;18.42;57.01;100737.30;1766308;80;21485;-88
2022/05/30 10:54:06;;;;;;;4.70;3.25;;;;;;;18.58;56.59;100736.74;1757303;80;21601;-89
2022/05/30 10:56:36;;;;;;;7.42;3.05;;;;;;;18.73;56.21;100737.06;1748366;81;21055;-87
2022/05/30 10:59:08;;;;;;;5.37;3.98;;;;;;;18.80;55.80;100732.12;1751696;80;21755;-87
2022/05/30 11:01:52;;;;;;;4.72;3.37;;;;;;;18.68;55.56;100745.55;1751832;80;21058;-87
2022/05/30 11:04:42;;;;;;;6.00;3.15;;;;;;;18.60;55.49;100732.70;1758599;80;21020;-87
2022/05/30 11:07:38;;;;;;;4.37;3.62;;;;;;;18.40;55.50;100734.22;1764303;79;21092;-87
2022/05/30 11:10:46;;;;;;;3.75;3.22;;;;;;;18.32;55.70;100735.61;1773982;79;21098;-87
2022/05/30 11:13:55;;;;;;;5.17;3.72;;;;;;;18.17;55.92;100735.27;1799111;79;21714;-86
2022/05/30 11:16:36;;;;;;;5.80;3.52;;;;;;;18.06;55.45;100737.11;1790223;79;21049;-89
2022/05/30 11:19:27;;;;;;;4.58;3.15;;;;;;;18.00;55.73;100735.80;1791634;79;21084;-89
2022/05/30 11:22:17;;;;;;;5.72;4.75;;;;;;;18.14;55.88;100738.39;1784660;79;21046;-89
2022/05/30 11:24:48;;;;;;;5.55;4.30;;;;;;;18.22;56.03;100741.42;1778380;79;21788;-88
2022/05/30 11:27:54;;;;;;;8.65;4.12;;;;;;;17.90;56.25;100732.76;1787948;79;21259;-89
2022/05/30 11:30:50;;;;;;;5.95;4.45;;;;;;;17.59;56.20;100751.06;1791849;79;21042;-88
2022/05/30 11:33:39;;;;;;;5.12;3.45;;;;;;;17.23;56.75;100742.73;1752718;81;21039;-88
2022/05/30 11:36:22;;;;;;;10.15;5.30;;;;;;;17.09;56.60;100733.47;1736040;81;21075;-88
2022/05/30 11:39:08;;;;;;;5.62;4.28;;;;;;;16.86;56.60;100737.05;1748567;80;21118;-88
2022/05/30 11:42:26;;;;;;;4.30;3.12;;;;;;;16.77;56.51;100723.73;1740435;81;21766;-87
2022/05/30 11:45:04;;;;;;;5.37;3.37;;;;;;;16.73;56.81;100739.24;1744785;80;21066;-88
2022/05/30 11:47:38;;;;;;;7.50;3.42;;;;;;;16.73;57.27;100729.94;1752632;80;21054;-87
2022/05/30 11:50:23;;;;;;;;;;;;;;;16.81;57.29;100732.14;1748168;81;21170;-87
2022/05/30 11:53:32;;;;;;;7.37;5.08;;;;;;;16.74;57.00;100729.03;1734475;81;20192;-89
2022/05/30 11:56:34;;;;;;;4.53;2.90;;;;;;;16.49;56.83;100738.34;1748389;80;21758;-89
2022/05/30 11:59:07;;;;;;;5.80;3.50;;;;;;;16.37;57.19;100735.70;1745839;81;21521;-89
2022/05/30 12:01:34;;;;;;;6.50;3.50;;;;;;;16.40;57.44;100721.06;1754138;81;21940;-87
2022/05/30 12:04:47;;;;;;;8.05;4.53;;;;;;;16.56;57.78;100720.64;1743360;80;21170;-88